Airfield :
LOGIN :

Register | Disclaimer

   EN    FR    IT 

 










Legend :    VFR   Marginal VFR   IFR   Intensive IFR   Very Intensive IFR
Visi :
Ceiling :
>= 8 km
>= 3000ft
5 to 8 km
1000 to 3000 ft
1500m to 5 km
500 to 1000 ft
800 to 1500m
200 to 500 ft
< 800m
< 200 ft
Symbols :   Thunderstorms  Fog  Heavy snow  Heavy precipitations  Wind > 20 kt
SIGMETs :     Misc.  Thunderstorms  Icing  Turbulence  Mountain Waves  Volcanic Ashes






- Airport Elevation : 306 ft
- IATA code : EMA


EGNX - Nottingham East Midlands

CURRENT METAR :
  • 271450Z 30019G31KT 9999 VCSH FEW028 05/M01 Q1004

EXPIRED METARs :
  • 271420Z 30018G28KT 9999 FEW027 05/M01 Q1003
  • 271350Z 29021G32KT 260V330 9999 VCSH SCT027 05/M00 Q1003
  • 271320Z 31018KT 9999 BKN034 06/M01 Q1002
  • 271250Z 30019KT 9999 SCT033 05/M01 Q1001
  • 271220Z 31017KT 9999 SCT021 06/M01 Q1001

TAF TAF EGNX
Valid from the 27 at 12:00 until the 28 at 12:00 UTC


271109Z 2712/2812 31015KT 9999 SCT030
TEMPO 2712/2717 31018G28KT
PROB30
TEMPO 2712/2717 7000 SHRA
BECMG 2719/2722 25010KT
BECMG 2803/2806 19008KT
BECMG 2807/2810 6000 -RADZ BKN012
TEMPO 2808/2812 4000 RA BKN006
PROB40
TEMPO 2810/2812 18015G25KT
ATIS : +44 1332 852 852 (ext 3201)



MET'MAP, your aeronautical weather chart ! - Copyright ORBIFLY December 2007 - Disclaimer

ORBIFLY MET'MAP TEAM :

Programming & Development : Alexandra Zaïnal
Concept & original design : Baudouin d'Aumeries
Assistance for programming : Marc-Olivier Méhu
Technical & hardware support : Manuel Goepfert

Contact : metmap@orbifly.com




SOURCES & CREDITS :

   NOAA